Cutler Ridge, Florida
Current Conditions -  °F | °C
As of 2:06 PM on Friday 21 Nov 2014 (Local Time) from KTMB Reporting Station
Light Rain Light Rain  
Wind Chill: 71°   Ceiling: 700
Heat Index: 71°   Visibility: 2.5mi
Dew Point: 70°   Wind: 14mph
Humidity: 96%   Direction: 50°NE
Pressure: 30.12"   Gusts: NA
Location:  25.59°N, 80.38°W
Report Text: KTMB 211906Z 05012KT 2 1/2SM -RA BR BKN007 BKN013 OVC023 22/21 A3012 RMK AO2 P0000 T02170211
Loading
Personal Weather Stations






























Interactive Weather Map New forecast layout! Learn more

10-Day Weather Forecast

Advertisements
Track Severe Weather on mobile